createdAt,value
2022-12-28T00:01:47.433Z,99270.30
2022-12-28T00:04:20.224Z,99268.73
2022-12-28T00:06:53.180Z,99267.16
2022-12-28T00:09:22.361Z,99262.48
2022-12-28T00:11:54.065Z,99256.05
2022-12-28T00:14:22.994Z,99254.85
2022-12-28T00:16:59.289Z,99254.14
2022-12-28T00:19:27.345Z,99256.25
2022-12-28T00:21:57.534Z,99259.38
2022-12-28T00:24:30.260Z,99260.44
2022-12-28T00:26:59.590Z,99254.73
2022-12-28T00:29:27.708Z,99254.38
2022-12-28T00:31:56.147Z,99256.80
2022-12-28T00:34:26.295Z,99255.75
2022-12-28T00:37:10.413Z,99253.32
2022-12-28T00:39:43.276Z,99252.66
2022-12-28T00:42:15.340Z,99257.48
2022-12-28T00:44:43.373Z,99257.33
2022-12-28T00:47:11.425Z,99257.34
2022-12-28T00:49:40.462Z,99254.94
2022-12-28T00:52:08.405Z,99258.27
2022-12-28T00:54:36.489Z,99263.80
2022-12-28T00:57:04.488Z,99264.70
2022-12-28T00:59:34.900Z,99261.95
2022-12-28T01:02:03.268Z,99262.15
2022-12-28T01:04:32.477Z,99243.00
2022-12-28T01:07:00.420Z,99262.70
2022-12-28T01:09:29.613Z,99261.69
2022-12-28T01:11:57.527Z,99259.28
2022-12-28T01:14:25.664Z,99262.06
2022-12-28T01:16:53.679Z,99265.02
2022-12-28T01:19:22.593Z,99261.56
2022-12-28T01:21:52.071Z,99254.51
2022-12-28T01:24:20.063Z,99259.86
2022-12-28T01:26:49.222Z,99261.25
2022-12-28T01:29:18.639Z,99257.62
2022-12-28T01:31:46.706Z,99257.63
2022-12-28T01:34:15.032Z,99256.94
2022-12-28T01:36:43.023Z,99253.99
2022-12-28T01:39:11.036Z,99253.30
2022-12-28T01:41:41.010Z,99253.99
2022-12-28T01:44:10.473Z,99247.09
2022-12-28T01:46:48.237Z,99246.40
2022-12-28T01:49:39.481Z,99248.30
2022-12-28T01:52:10.445Z,99244.67
2022-12-28T01:54:44.137Z,99239.84
2022-12-28T01:57:13.991Z,99244.16
2022-12-28T01:59:47.207Z,99233.79
2022-12-28T02:02:16.130Z,99233.80
2022-12-28T02:04:47.048Z,99228.27
2022-12-28T02:07:30.040Z,99227.40
2022-12-28T02:10:41.210Z,99225.00
2022-12-28T02:12:48.310Z,99224.12
2022-12-28T02:15:21.257Z,99221.02
2022-12-28T02:17:51.940Z,99211.17
2022-12-28T02:20:19.938Z,99207.55
2022-12-28T02:22:57.912Z,99198.57
2022-12-28T02:26:01.475Z,99198.23
2022-12-28T02:28:29.376Z,99188.90
2022-12-28T02:31:24.401Z,99181.13
2022-12-28T02:34:03.717Z,99180.45
2022-12-28T02:36:41.862Z,99180.45
2022-12-28T02:39:20.929Z,99177.68
2022-12-28T02:41:51.719Z,99174.75
2022-12-28T02:44:39.736Z,99172.67
2022-12-28T02:47:33.594Z,99170.60
2022-12-28T02:50:06.579Z,99167.50
2022-12-28T02:52:54.646Z,99173.02
2022-12-28T02:55:59.391Z,99170.09
2022-12-28T02:58:49.011Z,99163.70
2022-12-28T03:01:42.311Z,99160.59
2022-12-28T03:04:48.931Z,99162.84
2022-12-28T03:07:54.533Z,99160.77
2022-12-28T03:10:29.365Z,99152.83
2022-12-28T03:13:29.906Z,99147.64
2022-12-28T03:16:07.100Z,99147.30
2022-12-28T03:18:56.622Z,99155.93
2022-12-28T03:21:48.798Z,99158.52
2022-12-28T03:24:36.462Z,99163.00
2022-12-28T03:27:28.851Z,99161.11
2022-12-28T03:30:30.595Z,99160.92
2022-12-28T03:33:00.383Z,99156.45
2022-12-28T03:35:41.070Z,99156.61
2022-12-28T03:38:27.230Z,99149.02
2022-12-28T03:41:09.402Z,99142.12
2022-12-28T03:43:52.501Z,99136.25
2022-12-28T03:46:23.572Z,99137.98
2022-12-28T03:48:52.607Z,99132.80
2022-12-28T03:51:23.080Z,99129.52
2022-12-28T03:53:52.092Z,99133.66
2022-12-28T03:56:25.162Z,99128.65
2022-12-28T03:58:56.103Z,99130.91
2022-12-28T04:01:28.156Z,99123.99
2022-12-28T04:03:56.243Z,99119.67
2022-12-28T04:06:24.988Z,99118.30
2022-12-28T04:08:53.202Z,99113.63
2022-12-28T04:11:21.877Z,99111.58
2022-12-28T04:13:52.878Z,99113.13
2022-12-28T04:16:22.366Z,99106.73
2022-12-28T04:18:50.548Z,99101.55
2022-12-28T04:21:18.729Z,99092.23
2022-12-28T04:23:47.109Z,99093.26
2022-12-28T04:26:21.526Z,99097.74
2022-12-28T04:28:54.692Z,99101.55
2022-12-28T04:32:01.269Z,99096.89
2022-12-28T04:34:29.238Z,99090.31
2022-12-28T04:37:00.813Z,99084.96
2022-12-28T04:39:28.829Z,99078.76
2022-12-28T04:42:16.800Z,99078.75
2022-12-28T04:44:44.720Z,99072.89
2022-12-28T04:47:13.670Z,99070.48
2022-12-28T04:49:41.622Z,99068.91
2022-12-28T04:52:09.522Z,99073.22
2022-12-28T04:54:37.496Z,99076.67
2022-12-28T04:57:05.572Z,99080.29
2022-12-28T04:59:33.661Z,99074.42
2022-12-28T05:02:01.742Z,99072.16
2022-12-28T05:04:29.749Z,99070.79
2022-12-28T05:06:57.727Z,99060.42
2022-12-28T05:09:25.692Z,99065.95
2022-12-28T05:11:53.969Z,99059.73
2022-12-28T05:14:21.919Z,99058.17
2022-12-28T05:16:52.417Z,99058.88
2022-12-28T05:19:20.477Z,99058.70
2022-12-28T05:21:48.591Z,99053.34
2022-12-28T05:24:16.552Z,99047.29
2022-12-28T05:26:44.429Z,99045.41
2022-12-28T05:29:12.409Z,99045.05
2022-12-28T05:31:40.566Z,99036.41
2022-12-28T05:34:08.621Z,99034.15
2022-12-28T05:36:38.231Z,99031.05
2022-12-28T05:39:06.370Z,99030.36
2022-12-28T05:41:34.627Z,99037.77
2022-12-28T05:44:02.770Z,99037.08
2022-12-28T05:46:33.271Z,99032.24
2022-12-28T05:49:02.172Z,99031.22
2022-12-28T05:51:32.517Z,99030.70
2022-12-28T05:54:01.363Z,99031.73
2022-12-28T05:56:30.194Z,99030.36
2022-12-28T05:59:01.587Z,99029.48
2022-12-28T06:01:39.171Z,99032.23
2022-12-28T06:04:09.379Z,99031.19
2022-12-28T06:06:37.306Z,99025.13
2022-12-28T06:09:05.389Z,99028.95
2022-12-28T06:11:33.495Z,99019.79
2022-12-28T06:14:03.692Z,99020.81
2022-12-28T06:16:35.528Z,99014.44
2022-12-28T06:19:06.106Z,99015.30
2022-12-28T06:21:36.083Z,99010.45
2022-12-28T06:24:05.891Z,99006.66
2022-12-28T06:26:35.740Z,99000.95
2022-12-28T06:29:04.593Z,98999.92
2022-12-28T06:31:38.517Z,99001.31
2022-12-28T06:34:08.879Z,98999.94
2022-12-28T06:36:40.535Z,99000.09
2022-12-28T06:39:11.201Z,98999.75
2022-12-28T06:41:40.079Z,98999.91
2022-12-28T06:44:10.593Z,99000.60
2022-12-28T06:46:39.558Z,98999.04
2022-12-28T06:49:08.133Z,98996.80
2022-12-28T06:51:40.695Z,98999.39
2022-12-28T06:54:10.249Z,98993.52
2022-12-28T06:56:39.558Z,98992.52
2022-12-28T06:59:07.764Z,98995.48
2022-12-28T07:01:40.988Z,98999.14
2022-12-28T07:04:10.798Z,98996.02
2022-12-28T07:06:41.202Z,98996.73
2022-12-28T07:09:13.577Z,98998.08
2022-12-28T07:11:43.338Z,98993.23
2022-12-28T07:14:11.947Z,98997.38
2022-12-28T07:19:07.771Z,98998.21
2022-12-28T07:21:39.287Z,98994.04
2022-12-28T07:24:08.194Z,98990.55
2022-12-28T07:26:38.540Z,98988.28
2022-12-28T07:29:07.725Z,98981.52
2022-12-28T07:31:44.845Z,98984.27
2022-12-28T07:34:16.372Z,98981.52
2022-12-28T07:36:44.527Z,98986.15
2022-12-28T07:39:12.353Z,98986.11
2022-12-28T07:41:40.360Z,98981.07
2022-12-28T07:44:08.377Z,98982.77
2022-12-28T07:46:37.962Z,98981.55
2022-12-28T07:49:06.056Z,98977.55
2022-12-28T07:51:36.745Z,98978.88
2022-12-28T07:54:05.995Z,98982.80
2022-12-28T07:59:04.523Z,98978.55
2022-12-28T08:01:34.475Z,98977.82
2022-12-28T08:04:05.355Z,98975.20
2022-12-28T08:06:36.454Z,98974.98
2022-12-28T08:09:05.959Z,98971.63
2022-12-28T08:11:36.712Z,98968.31
2022-12-28T08:14:06.462Z,98967.58
2022-12-28T08:16:38.661Z,98966.99
2022-12-28T08:19:08.472Z,98972.27
2022-12-28T08:21:46.522Z,98977.20
2022-12-28T08:24:18.283Z,98976.98
2022-12-28T08:26:48.770Z,98974.69
2022-12-28T08:29:20.356Z,98980.50
2022-12-28T08:31:49.531Z,98973.14
2022-12-28T08:34:27.490Z,98971.98
2022-12-28T08:36:56.490Z,98968.89
2022-12-28T08:39:24.853Z,98967.54
2022-12-28T08:41:52.782Z,98967.15
2022-12-28T08:44:26.559Z,98971.80
2022-12-28T08:46:54.990Z,98970.45
2022-12-28T08:49:22.935Z,98970.23
2022-12-28T08:51:50.946Z,98969.83
2022-12-28T08:54:18.944Z,98973.63
2022-12-28T08:56:47.186Z,98971.90
2022-12-28T08:59:18.621Z,98971.67
2022-12-28T09:01:47.146Z,98976.08
2022-12-28T09:04:18.688Z,98973.48
2022-12-28T09:06:47.696Z,98978.55
2022-12-28T09:09:19.262Z,98977.63
2022-12-28T09:11:48.284Z,98977.36
2022-12-28T09:14:23.299Z,98983.09
2022-12-28T09:16:54.967Z,98982.00
2022-12-28T09:19:23.427Z,98973.45
2022-12-28T09:21:53.371Z,98972.47
2022-12-28T09:24:25.293Z,98968.70
2022-12-28T09:26:54.834Z,98968.23
2022-12-28T09:29:23.059Z,98969.50
2022-12-28T09:31:53.410Z,98962.45
2022-12-28T09:34:35.490Z,98958.33
2022-12-28T09:37:08.780Z,98959.72
2022-12-28T09:39:37.973Z,98954.89
2022-12-28T09:42:25.587Z,98955.37
2022-12-28T09:45:13.593Z,98958.33
2022-12-28T09:47:52.042Z,98959.02
2022-12-28T09:50:31.325Z,98962.25
2022-12-28T09:53:15.499Z,98958.88
2022-12-28T09:56:14.738Z,98962.10
2022-12-28T09:58:47.859Z,98961.41
2022-12-28T10:01:22.163Z,98957.69
2022-12-28T10:04:01.320Z,98960.16
2022-12-28T10:06:35.444Z,98957.04
2022-12-28T10:09:15.931Z,98952.69
2022-12-28T10:11:47.168Z,98948.64
2022-12-28T10:14:22.329Z,98942.14
2022-12-28T10:16:51.653Z,98936.23
2022-12-28T10:19:27.354Z,98935.38
2022-12-28T10:22:06.239Z,98926.90
2022-12-28T10:24:40.858Z,98921.40
2022-12-28T10:27:19.019Z,98913.54
2022-12-28T10:29:46.901Z,98916.30
2022-12-28T10:32:14.939Z,98900.90
2022-12-28T10:35:02.286Z,98890.95
2022-12-28T10:37:43.724Z,98882.34
2022-12-28T10:40:31.002Z,98875.77
2022-12-28T10:43:04.143Z,98873.21
2022-12-28T10:45:46.731Z,98865.89
2022-12-28T10:48:18.697Z,98862.07
2022-12-28T10:51:12.573Z,98858.71
2022-12-28T10:53:46.722Z,98858.67
2022-12-28T10:56:31.630Z,98847.43
2022-12-28T10:59:15.445Z,98836.14
2022-12-28T11:01:43.408Z,98831.05
2022-12-28T11:04:23.677Z,98826.80
2022-12-28T11:07:01.128Z,98825.96
2022-12-28T11:09:33.058Z,98826.17
2022-12-28T11:12:37.052Z,98823.27
2022-12-28T11:15:05.527Z,98819.45
2022-12-28T11:17:38.211Z,98820.64
2022-12-28T11:20:18.695Z,98820.30
2022-12-28T11:22:50.495Z,98809.38
2022-12-28T11:25:20.456Z,98813.48
2022-12-28T11:27:52.207Z,98811.02
2022-12-28T11:30:21.315Z,98802.42
2022-12-28T11:33:00.016Z,98796.48
2022-12-28T11:35:38.602Z,98794.17
2022-12-28T11:38:31.824Z,98786.71
2022-12-28T11:41:03.207Z,98786.36
2022-12-28T11:43:31.156Z,98781.59
2022-12-28T11:46:08.900Z,98774.16
2022-12-28T11:48:58.533Z,98775.96
2022-12-28T11:51:37.259Z,98777.02
2022-12-28T11:54:50.862Z,98768.00
2022-12-28T11:57:34.621Z,98755.70
2022-12-28T12:00:21.907Z,98758.85
2022-12-28T12:02:50.833Z,98754.27
2022-12-28T12:05:35.423Z,98753.52
2022-12-28T12:08:13.690Z,98744.32
2022-12-28T12:10:45.477Z,98740.08
2022-12-28T12:13:39.463Z,98733.19
2022-12-28T12:16:21.122Z,98735.98
2022-12-28T12:18:53.651Z,98729.35
2022-12-28T12:21:35.243Z,98723.16
2022-12-28T12:24:18.546Z,98715.58
2022-12-28T12:26:58.969Z,98704.63
2022-12-28T12:29:53.221Z,98704.27
2022-12-28T12:32:36.162Z,98694.53
2022-12-28T12:35:14.552Z,98693.84
2022-12-28T12:38:03.107Z,98694.83
2022-12-28T12:40:47.480Z,98696.25
2022-12-28T12:44:11.864Z,98695.96
2022-12-28T12:47:11.421Z,98684.00
2022-12-28T12:50:16.964Z,98685.61
2022-12-28T12:53:48.034Z,98678.70
2022-12-28T12:56:41.049Z,98676.63
2022-12-28T12:59:08.975Z,98674.20
2022-12-28T13:02:12.699Z,98666.10
2022-12-28T13:04:47.461Z,98666.55
2022-12-28T13:07:22.470Z,98666.03
2022-12-28T13:09:55.311Z,98668.16
2022-12-28T13:12:25.333Z,98661.52
2022-12-28T13:15:06.107Z,98652.61
2022-12-28T13:17:38.978Z,98646.30
2022-12-28T13:20:21.084Z,98643.30
2022-12-28T13:22:50.227Z,98642.11
2022-12-28T13:25:31.860Z,98640.73
2022-12-28T13:28:03.781Z,98641.18
2022-12-28T13:30:31.832Z,98633.63
2022-12-28T13:33:04.470Z,98626.46
2022-12-28T13:35:34.903Z,98623.55
2022-12-28T13:38:12.281Z,98626.70
2022-12-28T13:40:53.548Z,98623.48
2022-12-28T13:44:01.269Z,98621.30
2022-12-28T13:46:38.796Z,98623.91
2022-12-28T13:49:07.507Z,98621.35
2022-12-28T13:51:38.952Z,98628.18
2022-12-28T13:54:11.139Z,98629.39
2022-12-28T13:56:44.268Z,98632.08
2022-12-28T13:59:18.216Z,98627.58
2022-12-28T14:01:50.398Z,98624.92
2022-12-28T14:07:16.324Z,98622.32
2022-12-28T14:09:48.952Z,98622.67
2022-12-28T14:12:21.896Z,98623.05
2022-12-28T14:14:55.554Z,98618.55
2022-12-28T14:17:24.524Z,98619.16
2022-12-28T14:19:57.386Z,98618.17
2022-12-28T14:22:26.530Z,98612.14
2022-12-28T14:25:08.506Z,98609.29
2022-12-28T14:27:43.714Z,98612.09
2022-12-28T14:30:31.209Z,98607.27
2022-12-28T14:33:24.729Z,98613.89
2022-12-28T14:35:57.876Z,98616.73
2022-12-28T14:38:34.337Z,98615.62
2022-12-28T14:41:03.316Z,98618.46
2022-12-28T14:43:34.146Z,98616.86
2022-12-28T14:46:32.708Z,98613.70
2022-12-28T14:49:23.893Z,98610.92
2022-12-28T14:51:52.904Z,98610.95
2022-12-28T14:54:21.272Z,98599.83
2022-12-28T14:57:03.873Z,98592.70
2022-12-28T14:59:39.870Z,98589.36
2022-12-28T15:02:34.232Z,98580.72
2022-12-28T15:05:03.783Z,98578.94
2022-12-28T15:07:31.887Z,98571.75
2022-12-28T15:10:01.071Z,98582.45
2022-12-28T15:12:38.350Z,98582.40
2022-12-28T15:15:10.644Z,98577.61
2022-12-28T15:17:38.760Z,98573.19
2022-12-28T15:20:07.721Z,98573.85
2022-12-28T15:22:44.353Z,98576.17
2022-12-28T15:25:13.051Z,98570.67
2022-12-28T15:27:52.250Z,98570.92
2022-12-28T15:30:25.705Z,98565.98
2022-12-28T15:33:02.163Z,98567.08
2022-12-28T15:35:34.240Z,98559.98
2022-12-28T15:38:02.426Z,98554.60
2022-12-28T15:40:35.244Z,98555.10
2022-12-28T15:43:03.414Z,98554.08
2022-12-28T15:45:36.311Z,98550.64
2022-12-28T15:48:06.741Z,98550.48
2022-12-28T15:50:35.900Z,98545.11
2022-12-28T15:53:03.905Z,98542.55
2022-12-28T15:55:34.064Z,98543.52
2022-12-28T15:58:03.148Z,98539.92
2022-12-28T16:00:32.003Z,98537.85
2022-12-28T16:03:01.233Z,98537.66
2022-12-28T16:05:34.612Z,98536.85
2022-12-28T16:08:35.204Z,98539.45
2022-12-28T16:11:12.684Z,98533.89
2022-12-28T16:13:42.120Z,98532.66
2022-12-28T16:16:13.763Z,98530.25
2022-12-28T16:18:43.208Z,98527.94
2022-12-28T16:21:17.141Z,98529.52
2022-12-28T16:23:52.142Z,98532.84
2022-12-28T16:26:20.749Z,98532.69
2022-12-28T16:28:49.440Z,98532.20
2022-12-28T16:31:20.379Z,98527.01
2022-12-28T16:33:54.185Z,98529.67
2022-12-28T16:36:23.712Z,98526.09
2022-12-28T16:38:52.634Z,98530.63
2022-12-28T16:41:22.461Z,98524.73
2022-12-28T16:44:00.547Z,98520.27
2022-12-28T16:46:32.579Z,98507.81
2022-12-28T16:49:03.029Z,98514.76
2022-12-28T16:51:39.669Z,98515.29
2022-12-28T16:54:16.003Z,98513.05
2022-12-28T16:56:53.502Z,98511.29
2022-12-28T16:59:27.046Z,98514.05
2022-12-28T17:01:57.732Z,98523.52
2022-12-28T17:04:27.160Z,98522.55
2022-12-28T17:06:56.254Z,98520.05
2022-12-28T17:09:28.074Z,98523.81
2022-12-28T17:11:57.367Z,98516.02
2022-12-28T17:14:41.801Z,98513.62
2022-12-28T17:17:10.812Z,98511.30
2022-12-28T17:19:39.004Z,98504.90
2022-12-28T17:22:07.157Z,98508.81
2022-12-28T17:24:37.511Z,98508.26
2022-12-28T17:27:15.569Z,98513.80
2022-12-28T17:29:47.859Z,98514.85
2022-12-28T17:32:19.472Z,98518.78
2022-12-28T17:34:52.755Z,98516.37
2022-12-28T17:37:24.964Z,98516.39
2022-12-28T17:40:00.251Z,98518.67
2022-12-28T17:42:34.283Z,98515.73
2022-12-28T17:45:10.986Z,98507.03
2022-12-28T17:47:47.301Z,98509.96
2022-12-28T17:50:24.303Z,98509.08
2022-12-28T17:52:54.349Z,98511.02
2022-12-28T17:55:22.334Z,98506.34
2022-12-28T17:57:51.482Z,98500.30
2022-12-28T18:00:19.638Z,98501.19
2022-12-28T18:02:47.887Z,98509.89
2022-12-28T18:05:16.113Z,98506.25
2022-12-28T18:07:46.247Z,98507.13
2022-12-28T18:10:18.099Z,98509.08
2022-12-28T18:12:47.126Z,98514.42
2022-12-28T18:15:16.677Z,98513.38
2022-12-28T18:17:45.645Z,98513.77
2022-12-28T18:20:22.267Z,98513.30
2022-12-28T18:22:51.255Z,98515.36
2022-12-28T18:25:20.340Z,98517.50
2022-12-28T18:27:50.509Z,98516.13
2022-12-28T18:30:19.640Z,98513.95
2022-12-28T18:32:49.892Z,98514.66
2022-12-28T18:35:23.023Z,98516.41
2022-12-28T18:37:51.733Z,98510.66
2022-12-28T18:40:20.802Z,98509.10
2022-12-28T18:42:52.214Z,98515.69
2022-12-28T18:45:30.041Z,98519.52
2022-12-28T18:48:05.598Z,98517.30
2022-12-28T18:50:33.909Z,98507.36
2022-12-28T18:53:03.110Z,98513.36
2022-12-28T18:55:32.226Z,98509.77
2022-12-28T18:58:04.107Z,98516.38
2022-12-28T19:00:34.107Z,98511.59
2022-12-28T19:03:02.208Z,98511.39
2022-12-28T19:05:31.093Z,98511.95
2022-12-28T19:08:00.141Z,98515.71
2022-12-28T19:10:28.113Z,98518.64
2022-12-28T19:12:57.832Z,98521.08
2022-12-28T19:15:26.002Z,98512.85
2022-12-28T19:17:56.030Z,98511.64
2022-12-28T19:20:24.398Z,98514.63
2022-12-28T19:22:52.294Z,98513.42
2022-12-28T19:25:21.211Z,98516.38
2022-12-28T19:27:51.006Z,98510.23
2022-12-28T19:30:20.077Z,98509.08
2022-12-28T19:32:49.300Z,98499.58
2022-12-28T19:35:17.420Z,98492.73
2022-12-28T19:37:47.536Z,98494.44
2022-12-28T19:40:15.802Z,98497.94
2022-12-28T19:42:49.231Z,98487.48
2022-12-28T19:45:18.412Z,98494.59
2022-12-28T19:48:20.084Z,98495.52
2022-12-28T19:50:56.753Z,98486.03
2022-12-28T19:53:28.195Z,98486.61
2022-12-28T19:56:03.907Z,98489.27
2022-12-28T19:58:33.662Z,98483.27
2022-12-28T20:01:09.567Z,98484.41
2022-12-28T20:03:40.661Z,98485.13
2022-12-28T20:06:13.150Z,98479.41
2022-12-28T20:08:46.655Z,98473.05
2022-12-28T20:11:16.330Z,98466.87
2022-12-28T20:13:53.953Z,98462.53
2022-12-28T20:16:27.518Z,98461.50
2022-12-28T20:18:55.878Z,98461.20
2022-12-28T20:21:26.174Z,98459.33
2022-12-28T20:24:02.646Z,98460.60
2022-12-28T20:26:30.711Z,98462.91
2022-12-28T20:29:04.630Z,98467.27
2022-12-28T20:31:34.733Z,98462.61
2022-12-28T20:34:02.785Z,98454.33
2022-12-28T20:36:38.233Z,98451.96
2022-12-28T20:39:06.189Z,98450.64
2022-12-28T20:41:53.818Z,98446.16
2022-12-28T20:44:32.522Z,98444.98
2022-12-28T20:47:02.209Z,98444.13
2022-12-28T20:49:35.871Z,98441.54
2022-12-28T20:52:37.150Z,98439.41
2022-12-28T20:55:05.554Z,98436.39
2022-12-28T20:57:35.689Z,98428.29
2022-12-28T21:00:04.689Z,98424.64
2022-12-28T21:02:34.837Z,98425.65
2022-12-28T21:05:04.387Z,98418.20
2022-12-28T21:07:33.506Z,98412.10
2022-12-28T21:10:04.106Z,98411.04
2022-12-28T21:12:32.095Z,98411.23
2022-12-28T21:15:01.188Z,98409.12
2022-12-28T21:17:39.319Z,98408.70
2022-12-28T21:20:47.964Z,98411.06
2022-12-28T21:23:23.678Z,98405.05
2022-12-28T21:25:52.053Z,98403.10
2022-12-28T21:28:26.357Z,98391.17
2022-12-28T21:30:55.507Z,98390.12
2022-12-28T21:33:24.499Z,98385.30
2022-12-28T21:36:04.743Z,98384.80
2022-12-28T21:38:36.306Z,98386.85
2022-12-28T21:41:07.282Z,98388.54
2022-12-28T21:43:39.485Z,98386.74
2022-12-28T21:46:12.839Z,98386.91
2022-12-28T21:48:41.629Z,98386.70
2022-12-28T21:51:32.072Z,98384.23
2022-12-28T21:54:13.278Z,98385.08
2022-12-28T21:56:44.415Z,98388.03
2022-12-28T21:59:13.963Z,98381.96
2022-12-28T22:02:07.955Z,98380.05
2022-12-28T22:05:01.831Z,98374.22
2022-12-28T22:07:32.061Z,98380.10
2022-12-28T22:10:18.774Z,98371.07
2022-12-28T22:12:46.838Z,98374.14
2022-12-28T22:15:39.370Z,98370.50
2022-12-28T22:18:37.042Z,98365.31
2022-12-28T22:21:07.971Z,98366.09
2022-12-28T22:23:43.259Z,98365.66
2022-12-28T22:26:16.066Z,98363.48
2022-12-28T22:28:45.220Z,98362.10
2022-12-28T22:31:14.508Z,98364.54
2022-12-28T22:33:42.575Z,98372.10
2022-12-28T22:36:15.896Z,98377.26
2022-12-28T22:38:46.560Z,98377.76
2022-12-28T22:41:15.635Z,98378.05
2022-12-28T22:43:43.658Z,98366.55
2022-12-28T22:46:12.415Z,98375.24
2022-12-28T22:48:40.578Z,98382.67
2022-12-28T22:51:12.524Z,98384.41
2022-12-28T22:53:42.408Z,98373.23
2022-12-28T22:56:21.050Z,98393.38
2022-12-28T22:58:54.108Z,98392.52
2022-12-28T23:01:24.666Z,98385.59
2022-12-28T23:03:53.774Z,98382.52
2022-12-28T23:06:28.296Z,98383.61
2022-12-28T23:09:05.195Z,98383.42
2022-12-28T23:11:37.149Z,98381.84
2022-12-28T23:14:42.516Z,98376.20
2022-12-28T23:17:13.361Z,98374.73
2022-12-28T23:20:05.318Z,98364.37
2022-12-28T23:22:56.775Z,98360.21
2022-12-28T23:25:44.558Z,98363.16
2022-12-28T23:28:16.587Z,98369.70
2022-12-28T23:30:51.518Z,98364.93
2022-12-28T23:33:20.657Z,98363.67
2022-12-28T23:35:49.935Z,98363.87
2022-12-28T23:38:25.135Z,98366.00
2022-12-28T23:41:13.981Z,98376.45
2022-12-28T23:43:43.076Z,98369.10
2022-12-28T23:46:13.196Z,98368.24
2022-12-28T23:48:42.236Z,98372.25
2022-12-28T23:51:11.404Z,98360.05
2022-12-28T23:53:40.431Z,98354.85
2022-12-28T23:56:10.519Z,98347.77
2022-12-28T23:58:49.741Z,98348.49
